Greta — WDF3298 — position and weather

sailwx.info

Track history (hours):
 
Tides and Currents Weather Stations Pressure Air Temp Water Temp Dewpoint Dewpoint Depression Visibility Wind Speed Wind Dir Waves Ship Positions

Greta

Owner: General Electric Credit Corporation Of Tennessee, Seattle, WA. More information available from US FCC via Universal Licensing System and Coast Guard Vessel Documentation Center.

Last reported at 2016-Nov-15 12:17 UTC. Time now 2016-Dec-07 10:41 UTC.
Position N 49°19' W 123°06'.
Warning: this ship's position is 21 days out of date.

Length 44 m; draft 2 m.

Type: Ship. MMSI: 367438220.

Date/timePositionNaut miles runAvg speedWind from/ knotsBaromVisibWave heightAir tempDewpointWater temp
2016-Nov-15 12:17N 49°19' W 123°06'1 1.9
2016-Nov-15 11:33N 49°19' W 123°09'7 6.8
2016-Nov-15 10:33N 49°16' W 123°18'25 8.1
2016-Nov-15 07:32N 48°54' W 123°02'9 8.5
2016-Nov-15 06:31N 48°48' W 122°52'5 7.9
2016-Nov-15 05:51N 48°45' W 122°46'12 5.2
2016-Nov-15 03:33N 48°33' W 122°45'5 5.4
2016-Nov-15 02:33N 48°28' W 122°44'22 7.2
2016-Nov-14 23:32N 48°06' W 122°39'31 7.8
2016-Nov-14 19:33N 47°37' W 122°24'  
Track history (hours):
 
Tides and Currents Weather Stations Pressure Air Temp Water Temp Dewpoint Dewpoint Depression Visibility Wind Speed Wind Dir Waves Ship Positions

Greta

Owner: General Electric Credit Corporation Of Tennessee, Seattle, WA. More information available from US FCC via Universal Licensing System and Coast Guard Vessel Documentation Center.

Last reported at 2016-Nov-15 12:17 UTC. Time now 2016-Dec-07 10:41 UTC.
Position N 49°19' W 123°06'.
Warning: this ship's position is 21 days out of date.

Length 44 m; draft 2 m.

Type: Ship. MMSI: 367438220.

Date/timePositionNaut miles runAvg speedWind from/ knotsBaromVisibWave heightAir tempDewpointWater temp
2016-Nov-15 12:17N 49°19' W 123°06'1 1.9
2016-Nov-15 11:33N 49°19' W 123°09'7 6.8
2016-Nov-15 10:33N 49°16' W 123°18'25 8.1
2016-Nov-15 07:32N 48°54' W 123°02'9 8.5
2016-Nov-15 06:31N 48°48' W 122°52'5 7.9
2016-Nov-15 05:51N 48°45' W 122°46'12 5.2
2016-Nov-15 03:33N 48°33' W 122°45'5 5.4
2016-Nov-15 02:33N 48°28' W 122°44'22 7.2
2016-Nov-14 23:32N 48°06' W 122°39'31 7.8
2016-Nov-14 19:33N 47°37' W 122°24'  

Dump ship's entire track history